Time;durP1;ratioP1;P1;durP2;ratioP2;P2;SDS_P1;SDS_P2;PMS_P1;PMS_P2;Temp;Humidity;BMP_temperature;BMP_pressure;BME280_temperature;BME280_humidity;BME280_pressure;Samples;Min_cycle;Max_cycle;Signal;HPM_P1;HPM_P2
2022/05/31 00:01:55;;;;;;;2.05;1.60;;;10.60;99.90;;;;;;5056730;28;20068;-43
2022/05/31 00:04:21;;;;;;;4.18;1.50;;;10.60;99.90;;;;;;5069422;28;20055;-43
2022/05/31 00:06:48;;;;;;;2.83;1.60;;;10.60;99.90;;;;;;5059586;28;20056;-43
2022/05/31 00:09:16;;;;;;;4.05;1.90;;;10.60;99.90;;;;;;5057549;28;20132;-43
2022/05/31 00:11:43;;;;;;;2.63;1.50;;;10.50;99.90;;;;;;5064507;28;20041;-42
2022/05/31 00:14:10;;;;;;;4.13;1.90;;;10.50;99.90;;;;;;5052819;28;20599;-43
2022/05/31 00:16:37;;;;;;;3.95;1.40;;;10.50;99.90;;;;;;5056905;28;20048;-42
2022/05/31 00:19:04;;;;;;;3.25;1.80;;;10.50;99.90;;;;;;5073207;28;20062;-43
2022/05/31 00:21:37;;;;;;;2.72;1.50;;;10.50;99.90;;;;;;5055764;28;20068;-42
2022/05/31 00:24:05;;;;;;;3.55;1.65;;;10.50;99.90;;;;;;5066613;28;20051;-43
2022/05/31 00:26:33;;;;;;;4.97;1.70;;;10.50;99.90;;;;;;5063268;28;20057;-43
2022/05/31 00:29:00;;;;;;;2.67;1.60;;;10.50;99.90;;;;;;5062809;28;20089;-42
2022/05/31 00:31:27;;;;;;;2.38;1.60;;;10.40;99.90;;;;;;5055693;28;20049;-42
2022/05/31 00:33:54;;;;;;;2.42;1.80;;;10.40;99.90;;;;;;5052616;28;20063;-42
2022/05/31 00:36:20;;;;;;;1.73;1.40;;;10.40;99.90;;;;;;5054284;28;20049;-42
2022/05/31 00:38:47;;;;;;;4.78;1.98;;;10.40;99.90;;;;;;5052113;28;20049;-42
2022/05/31 00:41:24;;;;;;;2.13;1.60;;;10.30;99.90;;;;;;5066682;28;20059;-43
2022/05/31 00:43:57;;;;;;;2.65;1.77;;;10.30;99.90;;;;;;5063957;28;20416;-43
2022/05/31 00:46:23;;;;;;;3.40;1.75;;;10.30;99.90;;;;;;5074634;28;20043;-42
2022/05/31 00:48:51;;;;;;;2.30;1.58;;;10.30;99.90;;;;;;5092705;28;20051;-42
2022/05/31 00:51:19;;;;;;;2.13;1.63;;;10.20;99.90;;;;;;5079649;28;20066;-43
2022/05/31 00:53:47;;;;;;;3.25;1.65;;;10.20;99.90;;;;;;5071612;28;20052;-42
2022/05/31 00:56:15;;;;;;;2.30;1.35;;;10.20;99.90;;;;;;5066464;28;20397;-42
2022/05/31 00:58:43;;;;;;;5.93;1.83;;;10.20;99.90;;;;;;5051977;28;20055;-42
2022/05/31 01:01:13;;;;;;;2.75;1.95;;;10.10;99.90;;;;;;5068589;28;20048;-42
2022/05/31 01:03:40;;;;;;;2.05;1.85;;;10.10;99.90;;;;;;5066747;28;20048;-43
2022/05/31 01:06:07;;;;;;;3.28;1.70;;;10.10;99.90;;;;;;5051246;28;20045;-42
2022/05/31 01:08:35;;;;;;;3.67;1.83;;;10.10;99.90;;;;;;5051503;28;20049;-43
2022/05/31 01:11:02;;;;;;;2.13;1.65;;;10.00;99.90;;;;;;5061241;28;20056;-42
2022/05/31 01:13:28;;;;;;;3.13;1.88;;;10.00;99.90;;;;;;5069759;28;20052;-42
2022/05/31 01:16:02;;;;;;;2.25;1.90;;;10.00;99.90;;;;;;5086563;28;20048;-42
2022/05/31 01:18:30;;;;;;;1.90;1.70;;;10.00;99.90;;;;;;5054845;28;20412;-42
2022/05/31 01:21:00;;;;;;;2.53;1.95;;;10.00;99.90;;;;;;5065817;28;20057;-42
2022/05/31 01:23:27;;;;;;;2.67;1.70;;;10.00;99.90;;;;;;5052304;28;20497;-42
2022/05/31 01:25:59;;;;;;;1.70;1.50;;;10.00;99.90;;;;;;5072659;28;20421;-42
2022/05/31 01:28:33;;;;;;;5.55;2.03;;;10.00;99.90;;;;;;5051266;28;20052;-42
2022/05/31 01:31:02;;;;;;;3.55;1.92;;;10.00;99.90;;;;;;5056938;28;20051;-42
2022/05/31 01:33:31;;;;;;;3.38;1.83;;;10.00;99.90;;;;;;5051697;28;20493;-43
2022/05/31 01:36:02;;;;;;;2.63;1.90;;;9.90;99.90;;;;;;5061876;28;20048;-42
2022/05/31 01:38:31;;;;;;;3.90;1.70;;;10.00;99.90;;;;;;5056438;28;20059;-42
2022/05/31 01:41:01;;;;;;;4.60;1.90;;;9.90;99.90;;;;;;5057671;28;20053;-42
2022/05/31 01:43:27;;;;;;;3.15;1.80;;;9.90;99.90;;;;;;5072569;28;20054;-43
2022/05/31 01:45:56;;;;;;;2.50;1.73;;;9.90;99.90;;;;;;5060207;28;20495;-42
2022/05/31 01:48:23;;;;;;;4.10;1.77;;;9.90;99.90;;;;;;5051838;28;20049;-42
2022/05/31 01:50:49;;;;;;;3.15;1.90;;;9.90;99.90;;;;;;5063108;28;20056;-42
2022/05/31 01:53:17;;;;;;;2.33;1.88;;;9.90;99.90;;;;;;5050611;28;20049;-42
2022/05/31 01:55:44;;;;;;;3.45;1.95;;;9.80;99.90;;;;;;5058365;28;20524;-43
2022/05/31 01:58:14;;;;;;;2.95;1.85;;;9.90;99.90;;;;;;5052392;28;20131;-42
2022/05/31 02:00:41;;;;;;;2.85;1.73;;;9.90;99.90;;;;;;5072522;28;20055;-43
2022/05/31 02:03:09;;;;;;;2.63;1.80;;;9.90;99.90;;;;;;5062009;28;20056;-43
2022/05/31 02:05:35;;;;;;;2.97;2.10;;;9.90;99.90;;;;;;5060333;28;20053;-43
2022/05/31 02:08:03;;;;;;;2.70;2.03;;;9.90;99.90;;;;;;5058864;28;20055;-42
2022/05/31 02:10:33;;;;;;;3.22;1.90;;;9.90;99.90;;;;;;5062691;28;20088;-42
2022/05/31 02:12:59;;;;;;;2.30;2.05;;;9.90;99.90;;;;;;5068450;28;20428;-43
2022/05/31 02:15:26;;;;;;;6.00;1.85;;;9.80;99.90;;;;;;5055018;28;20045;-42
2022/05/31 02:17:53;;;;;;;2.67;1.90;;;9.80;99.90;;;;;;5069645;28;20109;-43
2022/05/31 02:20:19;;;;;;;2.63;1.88;;;9.80;99.90;;;;;;5074229;28;20046;-42
2022/05/31 02:22:46;;;;;;;2.90;1.88;;;9.90;99.90;;;;;;5075694;28;20052;-42
2022/05/31 02:25:13;;;;;;;2.55;1.90;;;9.90;99.90;;;;;;5072454;28;20051;-43
2022/05/31 02:27:41;;;;;;;4.47;2.33;;;9.90;99.90;;;;;;5073730;28;20048;-43
2022/05/31 02:30:08;;;;;;;2.22;2.00;;;9.90;99.90;;;;;;5070175;28;20049;-42
2022/05/31 02:32:35;;;;;;;2.30;2.10;;;9.90;99.90;;;;;;5063727;28;20419;-42
2022/05/31 02:35:02;;;;;;;3.08;2.28;;;9.90;99.90;;;;;;5054919;28;20049;-42
2022/05/31 02:37:29;;;;;;;2.85;2.30;;;9.90;99.90;;;;;;5069584;28;20052;-42
2022/05/31 02:39:56;;;;;;;2.92;2.03;;;10.00;99.90;;;;;;5070666;28;20060;-42
2022/05/31 02:42:23;;;;;;;2.80;1.98;;;9.90;99.90;;;;;;5069780;28;20126;-42
2022/05/31 02:44:51;;;;;;;4.22;2.30;;;9.90;99.90;;;;;;5068362;28;20463;-42
2022/05/31 02:47:19;;;;;;;4.43;2.42;;;9.90;99.90;;;;;;5065480;28;20513;-42
2022/05/31 02:49:46;;;;;;;4.22;2.30;;;9.90;99.90;;;;;;5072160;28;20044;-43
2022/05/31 02:52:13;;;;;;;4.05;2.63;;;9.90;99.90;;;;;;5058998;28;20053;-42
2022/05/31 02:54:39;;;;;;;3.17;2.50;;;9.90;99.90;;;;;;5054059;28;20049;-42
2022/05/31 02:57:06;;;;;;;3.45;2.70;;;9.90;99.90;;;;;;5062179;28;20054;-42
2022/05/31 02:59:33;;;;;;;3.50;2.13;;;9.80;99.90;;;;;;5068386;28;20057;-43
2022/05/31 03:02:01;;;;;;;3.53;2.38;;;9.90;99.90;;;;;;5069886;28;20131;-42
2022/05/31 03:04:28;;;;;;;3.85;2.42;;;9.90;99.90;;;;;;5073686;28;20420;-42
2022/05/31 03:07:01;;;;;;;3.22;2.38;;;9.90;99.90;;;;;;5060457;28;20059;-43
2022/05/31 03:09:28;;;;;;;3.22;2.70;;;9.90;99.90;;;;;;5067111;28;20048;-43
2022/05/31 03:11:56;;;;;;;4.15;2.75;;;9.90;99.90;;;;;;5057997;28;20059;-42
2022/05/31 03:14:24;;;;;;;2.88;2.58;;;9.90;99.90;;;;;;5082936;28;20044;-42
2022/05/31 03:16:53;;;;;;;3.25;2.80;;;9.90;99.90;;;;;;5063360;28;20044;-42
2022/05/31 03:19:23;;;;;;;4.05;2.58;;;9.90;99.90;;;;;;5066449;28;20051;-43
2022/05/31 03:21:52;;;;;;;2.75;2.20;;;10.00;99.90;;;;;;5060768;28;20140;-43
2022/05/31 03:24:20;;;;;;;4.43;2.60;;;9.90;99.90;;;;;;5075722;28;20498;-43
2022/05/31 03:26:47;;;;;;;4.72;2.97;;;9.90;99.90;;;;;;5067962;28;20059;-43
2022/05/31 03:29:14;;;;;;;6.40;3.55;;;9.90;99.90;;;;;;5061384;28;20040;-42
2022/05/31 03:31:40;;;;;;;5.95;2.92;;;10.00;99.90;;;;;;5065397;28;20051;-41
2022/05/31 03:34:07;;;;;;;5.72;2.97;;;10.00;99.90;;;;;;5052734;28;20515;-43
2022/05/31 03:36:35;;;;;;;4.15;3.10;;;10.00;99.90;;;;;;5058869;28;20400;-42
2022/05/31 03:39:02;;;;;;;3.47;2.90;;;10.00;99.90;;;;;;5061154;28;20055;-43
2022/05/31 03:41:28;;;;;;;7.82;3.30;;;10.00;99.90;;;;;;5065508;28;20060;-42
2022/05/31 03:43:56;;;;;;;4.43;3.08;;;10.00;99.90;;;;;;5056026;28;20480;-42
2022/05/31 03:46:22;;;;;;;5.75;3.25;;;10.00;99.90;;;;;;5070699;28;20080;-42
2022/05/31 03:48:49;;;;;;;5.45;3.20;;;10.00;99.90;;;;;;5068860;28;20051;-42
2022/05/31 03:51:16;;;;;;;6.30;3.85;;;10.00;99.90;;;;;;5064193;28;20131;-42
2022/05/31 03:53:44;;;;;;;4.40;2.95;;;10.00;99.90;;;;;;5061986;28;20078;-45
2022/05/31 03:56:11;;;;;;;5.93;3.58;;;10.00;99.90;;;;;;5062415;28;20057;-43
2022/05/31 03:58:38;;;;;;;3.30;3.00;;;10.00;99.90;;;;;;5057982;28;20053;-43
2022/05/31 04:01:05;;;;;;;5.13;3.58;;;10.00;99.90;;;;;;5064966;28;20451;-43
2022/05/31 04:03:32;;;;;;;4.32;3.17;;;10.00;99.90;;;;;;5053787;28;20053;-43
2022/05/31 04:05:59;;;;;;;7.78;3.83;;;10.10;99.90;;;;;;5065211;28;20046;-44
2022/05/31 04:08:26;;;;;;;6.32;3.50;;;10.10;99.90;;;;;;5050709;28;20052;-43
2022/05/31 04:10:55;;;;;;;6.10;4.85;;;10.10;99.90;;;;;;5051669;28;20045;-43
2022/05/31 04:13:22;;;;;;;4.97;3.40;;;10.10;99.90;;;;;;5070735;28;20131;-42
2022/05/31 04:15:49;;;;;;;9.00;3.45;;;10.10;99.90;;;;;;5069986;28;20048;-43
2022/05/31 04:18:16;;;;;;;4.45;3.25;;;10.10;99.90;;;;;;5061777;28;20378;-42
2022/05/31 04:20:43;;;;;;;4.95;4.20;;;10.10;99.90;;;;;;5070981;28;20105;-43
2022/05/31 04:26:03;;;;;;;6.90;4.50;;;10.10;99.90;;;;;;5055192;28;20052;-43
2022/05/31 04:28:30;;;;;;;7.53;4.18;;;10.20;99.90;;;;;;5062732;28;20128;-42
2022/05/31 04:30:57;;;;;;;4.65;4.18;;;10.10;99.90;;;;;;5068910;28;20058;-43
2022/05/31 04:33:24;;;;;;;6.82;4.40;;;10.20;99.90;;;;;;5072467;28;20056;-43
2022/05/31 04:35:58;;;;;;;6.78;4.20;;;10.20;99.90;;;;;;5074479;28;20060;-43
2022/05/31 04:38:25;;;;;;;7.07;4.85;;;10.20;99.90;;;;;;5071484;28;20044;-43
2022/05/31 04:40:52;;;;;;;6.53;3.95;;;10.20;99.90;;;;;;5072695;28;20075;-43
2022/05/31 04:43:20;;;;;;;6.28;4.07;;;10.30;99.90;;;;;;5071343;28;20076;-43
2022/05/31 04:45:46;;;;;;;5.10;3.83;;;10.30;99.90;;;;;;5072065;28;20091;-42
2022/05/31 04:48:13;;;;;;;8.63;4.70;;;10.30;99.90;;;;;;5071731;28;20044;-43
2022/05/31 04:50:40;;;;;;;7.65;4.57;;;10.30;99.90;;;;;;5068892;28;20120;-43
2022/05/31 04:53:06;;;;;;;7.32;3.38;;;10.40;99.90;;;;;;5068512;28;20051;-43
2022/05/31 04:55:33;;;;;;;7.25;4.60;;;10.40;99.90;;;;;;5070610;28;20051;-43
2022/05/31 04:58:00;;;;;;;4.88;3.35;;;10.40;99.90;;;;;;5081144;28;20048;-43
2022/05/31 05:00:28;;;;;;;5.47;4.20;;;10.40;99.90;;;;;;5084226;28;20416;-42
2022/05/31 05:02:55;;;;;;;6.50;4.22;;;10.50;99.90;;;;;;5072712;28;20127;-43
2022/05/31 05:05:21;;;;;;;9.98;4.30;;;10.50;99.90;;;;;;5067440;28;20058;-42
2022/05/31 05:07:48;;;;;;;6.15;4.55;;;10.60;99.90;;;;;;5075251;28;20075;-43
2022/05/31 05:10:17;;;;;;;5.97;4.00;;;10.70;99.90;;;;;;5057971;28;20063;-43
2022/05/31 05:12:43;;;;;;;7.78;4.47;;;10.60;99.90;;;;;;5066924;28;20135;-43
2022/05/31 05:15:11;;;;;;;7.72;4.50;;;10.70;99.90;;;;;;5064013;28;20063;-43
2022/05/31 05:17:39;;;;;;;6.40;4.47;;;10.70;99.90;;;;;;5049284;28;20037;-43
2022/05/31 05:20:07;;;;;;;6.05;4.30;;;10.70;99.90;;;;;;5043618;28;20053;-43
2022/05/31 05:22:34;;;;;;;5.22;4.43;;;10.80;99.90;;;;;;5055602;28;20048;-43
2022/05/31 05:25:00;;;;;;;7.82;4.65;;;10.80;99.90;;;;;;5048283;28;20056;-43
2022/05/31 05:27:27;;;;;;;6.97;4.80;;;10.80;99.90;;;;;;5051200;28;20048;-43
2022/05/31 05:32:39;;;;;;;6.53;4.75;;;10.90;99.90;;;;;;5071550;28;20056;-43
2022/05/31 05:35:07;;;;;;;8.75;4.60;;;10.90;99.90;;;;;;5058813;28;20510;-43
2022/05/31 05:37:34;;;;;;;10.07;4.55;;;11.00;99.90;;;;;;5063149;28;20044;-43
2022/05/31 05:40:01;;;;;;;8.48;4.60;;;11.00;99.90;;;;;;5055018;28;20049;-43
2022/05/31 05:42:28;;;;;;;7.60;4.88;;;11.00;99.90;;;;;;5050785;28;21514;-44
2022/05/31 05:44:55;;;;;;;5.18;4.65;;;11.20;99.90;;;;;;5054975;28;20052;-43
2022/05/31 05:47:22;;;;;;;7.85;4.53;;;11.10;99.90;;;;;;5059339;28;20123;-43
2022/05/31 05:49:50;;;;;;;7.03;4.82;;;11.20;99.90;;;;;;5068629;28;20059;-43
2022/05/31 05:52:16;;;;;;;6.03;4.65;;;11.20;99.90;;;;;;5074041;28;20408;-44
2022/05/31 05:54:43;;;;;;;6.47;4.28;;;11.30;99.90;;;;;;5070338;28;20064;-44
2022/05/31 05:57:10;;;;;;;6.90;4.43;;;11.30;99.90;;;;;;5067949;28;20131;-43
2022/05/31 05:59:37;;;;;;;6.78;4.40;;;11.30;99.90;;;;;;5073520;28;20403;-43
2022/05/31 06:02:06;;;;;;;6.55;4.13;;;11.40;99.90;;;;;;5070839;28;20052;-43
2022/05/31 06:04:34;;;;;;;7.65;4.57;;;11.40;99.90;;;;;;5068837;28;20411;-43
2022/05/31 06:07:06;;;;;;;8.52;4.60;;;11.40;99.90;;;;;;5066646;28;20041;-42
2022/05/31 06:09:33;;;;;;;6.63;4.60;;;11.50;99.90;;;;;;5062477;28;20045;-42
2022/05/31 06:12:01;;;;;;;7.07;4.43;;;11.50;99.90;;;;;;5089011;28;20058;-43
2022/05/31 06:14:30;;;;;;;6.88;4.85;;;11.50;99.90;;;;;;5079555;28;20481;-44
2022/05/31 06:16:58;;;;;;;7.70;4.57;;;11.60;99.90;;;;;;5072310;28;20401;-43
2022/05/31 06:19:26;;;;;;;4.80;4.30;;;11.60;99.90;;;;;;5064670;28;20409;-43
2022/05/31 06:21:53;;;;;;;8.77;4.93;;;11.60;99.90;;;;;;5074402;28;20400;-43
2022/05/31 06:24:21;;;;;;;8.88;4.32;;;11.70;99.90;;;;;;5065125;28;21487;-43
2022/05/31 06:26:47;;;;;;;7.05;4.68;;;11.70;99.90;;;;;;5075836;28;20400;-43
2022/05/31 06:29:14;;;;;;;6.78;4.60;;;11.80;99.90;;;;;;5071653;28;20054;-43
2022/05/31 06:31:41;;;;;;;9.02;4.65;;;11.80;99.90;;;;;;5062510;28;20051;-43
2022/05/31 06:34:07;;;;;;;5.85;4.38;;;11.90;99.90;;;;;;5079500;28;20054;-43
2022/05/31 06:36:34;;;;;;;9.80;4.55;;;12.00;99.90;;;;;;5063828;28;20489;-44
2022/05/31 06:39:01;;;;;;;6.32;4.63;;;12.00;99.90;;;;;;5072550;28;20045;-43
2022/05/31 06:41:29;;;;;;;7.03;4.22;;;12.10;99.90;;;;;;5066466;28;20053;-43
2022/05/31 06:43:57;;;;;;;7.32;4.20;;;12.20;99.90;;;;;;5059132;28;20503;-43
2022/05/31 06:46:24;;;;;;;4.97;4.07;;;12.30;99.90;;;;;;5070359;28;20044;-43
2022/05/31 06:48:51;;;;;;;8.48;4.07;;;12.30;99.90;;;;;;5050039;28;20044;-43
2022/05/31 06:56:48;;;;;;;7.63;4.43;;;12.40;99.90;;;;;;5065353;28;20054;-44
2022/05/31 06:56:52;;;;;;;7.85;4.53;;;12.60;99.90;;;;;;5072473;28;20459;-43
2022/05/31 06:59:19;;;;;;;10.23;4.55;;;12.80;99.90;;;;;;5071277;28;20135;-43
2022/05/31 07:01:47;;;;;;;5.53;3.90;;;13.00;99.90;;;;;;5073405;28;20084;-43
2022/05/31 07:04:14;;;;;;;7.80;4.55;;;13.10;99.90;;;;;;5060489;28;20048;-43
2022/05/31 07:06:40;;;;;;;10.85;4.10;;;13.20;99.90;;;;;;5060995;28;20515;-43
2022/05/31 07:09:07;;;;;;;7.53;4.20;;;13.30;99.90;;;;;;5052782;28;20049;-43
2022/05/31 07:11:34;;;;;;;7.10;4.18;;;13.50;99.90;;;;;;5053439;28;20052;-43
2022/05/31 07:14:02;;;;;;;5.57;4.10;;;13.70;99.80;;;;;;5051098;28;20049;-44
2022/05/31 07:16:28;;;;;;;8.95;3.80;;;13.80;99.70;;;;;;5053229;28;20067;-43
2022/05/31 07:18:56;;;;;;;7.95;3.85;;;13.90;99.60;;;;;;5058209;28;20040;-43
2022/05/31 07:21:23;;;;;;;6.57;4.00;;;14.10;98.90;;;;;;5070726;28;20049;-43
2022/05/31 07:23:50;;;;;;;7.63;3.90;;;14.20;98.50;;;;;;5073221;28;20048;-42
2022/05/31 07:26:16;;;;;;;11.05;3.90;;;14.40;98.40;;;;;;5070723;28;20053;-42
2022/05/31 07:28:43;;;;;;;6.63;3.80;;;14.50;98.40;;;;;;5073024;28;20066;-42
2022/05/31 07:31:11;;;;;;;10.70;4.15;;;14.80;98.10;;;;;;5055960;28;20273;-43
2022/05/31 07:33:38;;;;;;;8.35;3.45;;;14.90;96.80;;;;;;5057290;28;20087;-43
2022/05/31 07:36:06;;;;;;;5.55;3.30;;;15.00;96.30;;;;;;5071728;28;20489;-43
2022/05/31 07:38:32;;;;;;;5.05;2.88;;;15.10;95.30;;;;;;5071272;28;20041;-43
2022/05/31 07:41:00;;;;;;;4.43;3.38;;;15.20;95.10;;;;;;5052666;28;20049;-42
2022/05/31 07:43:26;;;;;;;6.50;3.17;;;15.40;95.20;;;;;;5052752;28;20056;-43
2022/05/31 07:46:02;;;;;;;7.80;3.20;;;15.60;94.90;;;;;;5058315;28;20083;-43
2022/05/31 07:48:30;;;;;;;7.72;3.38;;;15.70;94.00;;;;;;5053587;28;20048;-43
2022/05/31 07:50:56;;;;;;;6.75;3.10;;;15.90;94.50;;;;;;5064308;28;20447;-43
2022/05/31 07:53:23;;;;;;;3.95;2.83;;;16.10;94.00;;;;;;5072426;28;20059;-43
2022/05/31 07:55:55;;;;;;;5.85;3.13;;;16.30;93.30;;;;;;5072376;28;20052;-43
2022/05/31 07:58:33;;;;;;;;;;;16.40;92.00;;;;;;5052542;28;20057;-43
2022/05/31 08:01:00;;;;;;;6.03;3.50;;;16.40;91.50;;;;;;5058140;28;20140;-43
2022/05/31 08:03:27;;;;;;;5.70;2.80;;;16.50;92.50;;;;;;5071029;28;20063;-42
2022/05/31 08:05:55;;;;;;;6.32;3.25;;;16.60;92.00;;;;;;5066790;28;20064;-43
2022/05/31 08:08:21;;;;;;;5.93;3.47;;;16.70;91.40;;;;;;5054510;28;20049;-43
2022/05/31 08:10:48;;;;;;;7.53;3.05;;;16.90;91.30;;;;;;5071251;28;20498;-43
2022/05/31 08:13:15;;;;;;;7.20;3.28;;;17.00;90.80;;;;;;5064716;28;20045;-43
2022/05/31 08:15:42;;;;;;;7.22;3.33;;;17.10;90.40;;;;;;5070146;28;20123;-43
2022/05/31 08:18:09;;;;;;;5.75;3.50;;;17.10;89.60;;;;;;5070945;28;20055;-43
2022/05/31 08:20:36;;;;;;;7.43;3.40;;;17.30;89.60;;;;;;5070593;28;20059;-43
2022/05/31 08:23:04;;;;;;;8.02;3.78;;;17.40;89.10;;;;;;5056560;28;20049;-44
2022/05/31 08:25:33;;;;;;;8.40;3.30;;;17.60;88.20;;;;;;5051743;28;20508;-43
2022/05/31 08:28:01;;;;;;;8.32;3.60;;;17.70;87.80;;;;;;5051360;28;20709;-44
2022/05/31 08:30:28;;;;;;;6.95;3.80;;;17.80;85.90;;;;;;5057560;28;20140;-43
2022/05/31 08:32:54;;;;;;;8.32;4.90;;;17.90;86.50;;;;;;5072175;28;20063;-43
2022/05/31 08:35:21;;;;;;;12.05;5.13;;;18.00;83.60;;;;;;5063086;28;20147;-43
2022/05/31 08:37:48;;;;;;;11.43;5.47;;;18.10;81.10;;;;;;5071856;28;20044;-44
2022/05/31 08:40:16;;;;;;;9.48;5.03;;;18.00;78.70;;;;;;5056044;28;20109;-43
2022/05/31 08:42:49;;;;;;;8.68;5.03;;;18.10;80.80;;;;;;5054239;28;20129;-43
2022/05/31 08:45:24;;;;;;;9.50;5.38;;;18.20;79.80;;;;;;5067123;28;20088;-43
2022/05/31 08:47:54;;;;;;;9.35;4.70;;;18.30;76.70;;;;;;5057157;28;20286;-43
2022/05/31 08:53:17;;;;;;;7.20;4.63;;;18.30;77.90;;;;;;5065544;28;20049;-43
2022/05/31 08:58:33;;;;;;;7.28;4.60;;;18.70;78.00;;;;;;5061582;28;20072;-43
2022/05/31 09:01:00;;;;;;;7.93;4.60;;;18.80;76.60;;;;;;5067904;28;20080;-43
2022/05/31 09:03:29;;;;;;;8.88;4.28;;;18.90;75.30;;;;;;5063849;28;20449;-44
2022/05/31 09:05:58;;;;;;;7.90;4.10;;;19.00;74.00;;;;;;5051097;28;20447;-44
2022/05/31 09:08:26;;;;;;;7.53;3.83;;;19.00;72.20;;;;;;5062474;28;20455;-44
2022/05/31 09:10:59;;;;;;;10.20;4.35;;;19.00;72.20;;;;;;5064431;28;20087;-43
2022/05/31 09:13:28;;;;;;;7.85;3.97;;;19.10;72.50;;;;;;5071137;28;20053;-44
2022/05/31 09:15:56;;;;;;;6.95;4.22;;;19.20;73.30;;;;;;5053941;28;20539;-44
2022/05/31 09:18:26;;;;;;;8.38;4.05;;;19.40;73.10;;;;;;5059754;28;20044;-43
2022/05/31 09:20:55;;;;;;;9.02;3.90;;;19.50;73.40;;;;;;5067960;28;20086;-43
2022/05/31 09:23:22;;;;;;;10.40;4.35;;;19.60;71.90;;;;;;5071549;28;20048;-43
2022/05/31 09:25:54;;;;;;;10.15;4.90;;;19.70;71.90;;;;;;5063674;28;20374;-44
2022/05/31 09:28:25;;;;;;;;;;;19.80;69.30;;;;;;5057600;28;20242;-43
2022/05/31 09:30:52;;;;;;;7.30;4.45;;;19.70;74.00;;;;;;5072082;28;20007;-44
2022/05/31 09:33:22;;;;;;;6.30;3.85;;;19.70;71.90;;;;;;5073283;28;20052;-43
2022/05/31 09:36:03;;;;;;;11.52;5.10;;;19.70;72.20;;;;;;5074290;28;20102;-44
2022/05/31 09:38:57;;;;;;;8.02;4.82;;;19.70;69.20;;;;;;5074286;28;20106;-43
2022/05/31 09:41:27;;;;;;;12.52;5.03;;;19.60;69.30;;;;;;5055315;28;20336;-43
2022/05/31 09:44:01;;;;;;;8.73;4.30;;;19.40;69.40;;;;;;5056807;28;20087;-44
2022/05/31 09:46:32;;;;;;;10.38;5.05;;;19.20;69.60;;;;;;5062322;28;20060;-43
2022/05/31 09:48:59;;;;;;;12.40;5.40;;;19.20;69.00;;;;;;5061994;28;20480;-44
2022/05/31 09:51:28;;;;;;;10.35;5.07;;;19.10;68.50;;;;;;5073263;28;20044;-44
2022/05/31 09:59:26;;;;;;;11.23;4.78;;;18.90;68.80;;;;;;5054040;28;20061;-44
2022/05/31 10:01:53;;;;;;;12.65;4.78;;;18.90;68.90;;;;;;5066531;28;20106;-43
2022/05/31 10:04:25;;;;;;;9.90;5.15;;;19.00;70.10;;;;;;5070933;28;20052;-44
2022/05/31 10:06:58;;;;;;;6.35;4.25;;;19.00;67.80;;;;;;5054500;28;20049;-43
2022/05/31 10:09:29;;;;;;;12.80;5.00;;;19.00;67.70;;;;;;5054042;28;20562;-44
2022/05/31 10:12:05;;;;;;;7.60;4.00;;;19.10;67.00;;;;;;5057601;28;20067;-43
2022/05/31 10:14:36;;;;;;;7.75;3.67;;;19.20;65.80;;;;;;5057259;28;20063;-44
2022/05/31 10:17:13;;;;;;;;;;;19.30;67.10;;;;;;5071005;28;20405;-43
2022/05/31 10:19:40;;;;;;;8.88;3.53;;;19.40;63.10;;;;;;5055496;28;19924;-44
2022/05/31 10:22:15;;;;;;;7.40;4.07;;;19.50;65.20;;;;;;5072373;28;20103;-43
2022/05/31 10:24:42;;;;;;;5.88;3.53;;;19.60;61.00;;;;;;5053995;28;20512;-43
2022/05/31 10:27:11;;;;;;;7.68;3.67;;;19.60;61.90;;;;;;5055393;28;20084;-44
2022/05/31 10:29:43;;;;;;;10.02;4.00;;;19.70;59.90;;;;;;5074093;28;20090;-44
2022/05/31 10:32:27;;;;;;;7.10;3.20;;;19.70;59.20;;;;;;5074048;28;20090;-43
2022/05/31 10:35:07;;;;;;;6.53;3.80;;;19.80;60.90;;;;;;5056540;28;20053;-43
2022/05/31 10:37:34;;;;;;;10.85;3.55;;;19.80;59.40;;;;;;5073516;28;20500;-43
2022/05/31 10:40:01;;;;;;;7.57;3.63;;;19.70;60.60;;;;;;5072662;28;20094;-44
2022/05/31 10:42:28;;;;;;;6.03;3.95;;;19.90;61.60;;;;;;5073678;28;20201;-44
2022/05/31 10:44:58;;;;;;;7.35;3.67;;;19.90;59.70;;;;;;5073115;28;20126;-43
2022/05/31 10:47:26;;;;;;;7.43;3.88;;;19.80;57.70;;;;;;5062442;28;20048;-43
2022/05/31 10:49:52;;;;;;;7.75;3.90;;;19.80;58.80;;;;;;5073739;28;20429;-43
2022/05/31 10:52:22;;;;;;;7.70;4.20;;;19.70;57.20;;;;;;5058354;28;20052;-44
2022/05/31 10:55:08;;;;;;;6.63;3.50;;;19.60;56.30;;;;;;5053685;28;20111;-44
2022/05/31 10:57:42;;;;;;;10.45;4.07;;;19.80;57.90;;;;;;5054045;28;20095;-43
2022/05/31 11:00:15;;;;;;;6.00;3.85;;;19.80;56.40;;;;;;5052245;28;20477;-43
2022/05/31 11:03:01;;;;;;;5.50;3.38;;;19.80;57.10;;;;;;5055048;28;20053;-44
2022/05/31 11:05:36;;;;;;;7.72;4.40;;;19.80;57.50;;;;;;5073391;28;20048;-43
2022/05/31 11:13:55;;;;;;;8.82;3.50;;;19.80;57.10;;;;;;5059961;28;20136;-43
2022/05/31 11:16:25;;;;;;;10.20;3.65;;;19.90;56.90;;;;;;5069948;28;20129;-44
2022/05/31 11:19:04;;;;;;;9.70;3.70;;;19.90;55.90;;;;;;5072571;28;20492;-44
2022/05/31 11:21:48;;;;;;;8.65;3.97;;;19.80;56.00;;;;;;5071118;28;20408;-43
2022/05/31 11:24:30;;;;;;;8.85;3.28;;;19.70;54.90;;;;;;5071465;28;20052;-44
2022/05/31 11:27:05;;;;;;;6.25;3.53;;;19.70;57.80;;;;;;5057243;28;20048;-44
2022/05/31 11:30:11;;;;;;;7.78;3.65;;;19.70;56.50;;;;;;5051165;28;20096;-44
2022/05/31 11:32:50;;;;;;;7.45;3.42;;;19.70;57.30;;;;;;5054876;28;20084;-43
2022/05/31 11:35:24;;;;;;;8.60;4.05;;;19.60;57.80;;;;;;5052914;28;20053;-43
2022/05/31 11:37:57;;;;;;;6.88;4.00;;;19.60;54.60;;;;;;5060660;28;20071;-43
2022/05/31 11:40:32;;;;;;;7.55;4.10;;;19.50;54.80;;;;;;5069096;28;20106;-44
2022/05/31 11:43:25;;;;;;;12.63;4.55;;;19.50;56.10;;;;;;5072246;28;20119;-44
2022/05/31 11:45:55;;;;;;;6.60;3.95;;;19.40;55.10;;;;;;5064297;28;20092;-43
2022/05/31 11:48:32;;;;;;;5.20;3.90;;;19.30;56.70;;;;;;5059355;28;20110;-44
2022/05/31 11:51:06;;;;;;;9.68;4.38;;;19.40;55.80;;;;;;5052804;28;20049;-43
2022/05/31 11:53:42;;;;;;;5.30;3.55;;;19.40;55.20;;;;;;5052440;28;20053;-44
2022/05/31 11:56:10;;;;;;;6.60;4.43;;;19.50;56.20;;;;;;5051440;28;20049;-43
2022/05/31 11:58:42;;;;;;;7.30;3.78;;;19.50;55.60;;;;;;5051076;28;20060;-42
2022/05/31 12:01:11;;;;;;;8.40;4.05;;;19.50;56.80;;;;;;5052153;28;20482;-43
2022/05/31 12:03:48;;;;;;;9.27;3.97;;;19.60;55.00;;;;;;5052262;28;20049;-42
2022/05/31 12:06:19;;;;;;;7.75;3.67;;;19.50;54.40;;;;;;5055355;28;20048;-43
2022/05/31 12:08:49;;;;;;;9.85;4.20;;;19.50;56.00;;;;;;5071789;28;20110;-43
2022/05/31 12:11:19;;;;;;;7.10;4.40;;;19.50;55.40;;;;;;5069284;28;20045;-42
2022/05/31 12:13:46;;;;;;;7.50;4.70;;;19.50;54.70;;;;;;5052875;28;20049;-43
2022/05/31 12:16:12;;;;;;;9.57;4.82;;;19.60;54.80;;;;;;5052080;28;20095;-43
2022/05/31 12:18:42;;;;;;;10.15;6.28;;;19.50;54.60;;;;;;5062001;28;20053;-43
2022/05/31 12:21:13;;;;;;;10.93;5.25;;;19.40;55.60;;;;;;5054470;28;20053;-43
2022/05/31 12:23:43;;;;;;;9.73;5.40;;;19.40;57.10;;;;;;5058534;28;20045;-44
2022/05/31 12:26:17;;;;;;;9.98;5.55;;;19.40;57.10;;;;;;5072691;28;20496;-43
2022/05/31 12:28:47;;;;;;;11.77;5.93;;;19.50;58.70;;;;;;5072944;28;20052;-44
2022/05/31 12:31:22;;;;;;;13.82;6.60;;;19.50;57.70;;;;;;5072968;28;20094;-44
2022/05/31 12:33:49;;;;;;;8.90;4.93;;;19.40;58.10;;;;;;5072126;28;20103;-44
2022/05/31 12:36:18;;;;;;;8.23;4.85;;;19.40;58.70;;;;;;5070919;28;20044;-43
2022/05/31 12:39:05;;;;;;;12.45;6.13;;;19.50;58.80;;;;;;5072589;28;20115;-45
2022/05/31 12:41:34;;;;;;;10.38;5.43;;;19.50;58.20;;;;;;5072733;28;20060;-43
2022/05/31 12:44:01;;;;;;;8.73;5.20;;;19.50;59.20;;;;;;5071375;28;20094;-43
2022/05/31 12:46:38;;;;;;;11.63;4.93;;;19.60;59.40;;;;;;5072753;28;20056;-43
2022/05/31 12:49:08;;;;;;;7.85;5.45;;;19.70;59.80;;;;;;5052709;28;20057;-44
2022/05/31 12:51:36;;;;;;;9.63;5.85;;;19.80;57.80;;;;;;5053033;28;20045;-44
2022/05/31 12:54:08;;;;;;;8.68;5.82;;;19.70;57.70;;;;;;5057718;28;20056;-44
2022/05/31 12:56:59;;;;;;;9.23;5.22;;;19.70;57.00;;;;;;5071595;28;20076;-44
2022/05/31 12:59:47;;;;;;;11.37;5.37;;;19.60;55.70;;;;;;5072851;28;20127;-44
2022/05/31 13:02:23;;;;;;;8.18;5.13;;;19.60;57.50;;;;;;5071258;28;20052;-44
2022/05/31 13:04:54;;;;;;;13.38;5.20;;;19.60;57.50;;;;;;5072281;28;20052;-44
2022/05/31 13:07:23;;;;;;;8.38;4.90;;;19.60;57.80;;;;;;5070761;28;20484;-44
2022/05/31 13:09:50;;;;;;;8.40;5.38;;;19.60;57.30;;;;;;5070983;28;20127;-44
2022/05/31 13:20:39;;;;;;;9.77;5.60;;;19.10;56.60;;;;;;5068232;28;20057;-44
2022/05/31 13:23:15;;;;;;;7.15;4.93;;;19.00;57.40;;;;;;5060420;28;20921;-44
2022/05/31 13:25:46;;;;;;;8.80;5.38;;;19.00;58.70;;;;;;5064330;28;20523;-43
2022/05/31 13:28:25;;;;;;;7.93;4.80;;;19.00;58.30;;;;;;5066485;28;20098;-44
2022/05/31 13:30:52;;;;;;;13.18;5.38;;;18.90;59.20;;;;;;5055652;28;20378;-43
2022/05/31 13:33:19;;;;;;;8.40;3.90;;;18.90;59.90;;;;;;5059178;28;20534;-44